sensor_id;sensor_type;location;lat;lon;timestamp;P1;durP1;ratioP1;P2;durP2;ratioP2
71360;SDS011;59166;48.908;1.870;2024-02-21T00:03:41;12.30;;;5.37;;
71360;SDS011;59166;48.908;1.870;2024-02-21T00:08:42;13.27;;;4.78;;
71360;SDS011;59166;48.908;1.870;2024-02-21T00:13:43;13.77;;;4.93;;
71360;SDS011;59166;48.908;1.870;2024-02-21T00:18:45;15.20;;;5.13;;
71360;SDS011;59166;48.908;1.870;2024-02-21T00:23:46;16.17;;;5.15;;
71360;SDS011;59166;48.908;1.870;2024-02-21T00:28:47;14.97;;;4.70;;
71360;SDS011;59166;48.908;1.870;2024-02-21T00:33:49;13.68;;;4.65;;
71360;SDS011;59166;48.908;1.870;2024-02-21T00:38:50;13.80;;;4.87;;
71360;SDS011;59166;48.908;1.870;2024-02-21T00:43:51;15.40;;;4.93;;
71360;SDS011;59166;48.908;1.870;2024-02-21T00:48:53;15.95;;;4.60;;
71360;SDS011;59166;48.908;1.870;2024-02-21T00:53:54;13.77;;;4.90;;
71360;SDS011;59166;48.908;1.870;2024-02-21T00:58:55;12.80;;;4.50;;
71360;SDS011;59166;48.908;1.870;2024-02-21T01:03:57;13.80;;;4.23;;
71360;SDS011;59166;48.908;1.870;2024-02-21T01:08:58;14.20;;;4.93;;
71360;SDS011;59166;48.908;1.870;2024-02-21T01:13:59;14.00;;;4.60;;
71360;SDS011;59166;48.908;1.870;2024-02-21T01:19:01;13.68;;;4.50;;
71360;SDS011;59166;48.908;1.870;2024-02-21T01:24:02;13.82;;;4.32;;
71360;SDS011;59166;48.908;1.870;2024-02-21T01:29:03;11.07;;;4.40;;
71360;SDS011;59166;48.908;1.870;2024-02-21T01:34:06;12.52;;;4.65;;
71360;SDS011;59166;48.908;1.870;2024-02-21T01:39:06;13.23;;;4.30;;
71360;SDS011;59166;48.908;1.870;2024-02-21T01:44:07;14.47;;;4.67;;
71360;SDS011;59166;48.908;1.870;2024-02-21T01:49:10;11.93;;;4.32;;
71360;SDS011;59166;48.908;1.870;2024-02-21T01:54:11;12.73;;;4.30;;
71360;SDS011;59166;48.908;1.870;2024-02-21T01:59:14;11.48;;;4.47;;
71360;SDS011;59166;48.908;1.870;2024-02-21T02:04:18;12.10;;;4.18;;
71360;SDS011;59166;48.908;1.870;2024-02-21T02:09:20;14.20;;;4.10;;
71360;SDS011;59166;48.908;1.870;2024-02-21T02:14:21;11.27;;;4.07;;
71360;SDS011;59166;48.908;1.870;2024-02-21T02:19:23;13.20;;;4.05;;
71360;SDS011;59166;48.908;1.870;2024-02-21T02:24:25;12.40;;;4.43;;
71360;SDS011;59166;48.908;1.870;2024-02-21T02:29:26;11.65;;;3.97;;
71360;SDS011;59166;48.908;1.870;2024-02-21T02:34:27;12.77;;;4.63;;
71360;SDS011;59166;48.908;1.870;2024-02-21T02:39:30;11.40;;;3.83;;
71360;SDS011;59166;48.908;1.870;2024-02-21T02:44:31;11.05;;;4.18;;
71360;SDS011;59166;48.908;1.870;2024-02-21T02:49:32;12.50;;;4.27;;
71360;SDS011;59166;48.908;1.870;2024-02-21T02:54:34;12.18;;;4.45;;
71360;SDS011;59166;48.908;1.870;2024-02-21T02:59:35;13.10;;;4.05;;
71360;SDS011;59166;48.908;1.870;2024-02-21T03:04:39;11.30;;;3.87;;
71360;SDS011;59166;48.908;1.870;2024-02-21T03:09:41;13.13;;;4.32;;
71360;SDS011;59166;48.908;1.870;2024-02-21T03:14:42;13.85;;;4.30;;
71360;SDS011;59166;48.908;1.870;2024-02-21T03:19:52;11.00;;;3.90;;
71360;SDS011;59166;48.908;1.870;2024-02-21T03:24:55;12.05;;;4.28;;
71360;SDS011;59166;48.908;1.870;2024-02-21T03:29:55;13.02;;;4.10;;
71360;SDS011;59166;48.908;1.870;2024-02-21T03:34:56;11.83;;;3.67;;
71360;SDS011;59166;48.908;1.870;2024-02-21T03:39:58;12.80;;;4.20;;
71360;SDS011;59166;48.908;1.870;2024-02-21T03:44:59;10.97;;;4.07;;
71360;SDS011;59166;48.908;1.870;2024-02-21T03:50:00;11.77;;;4.20;;
71360;SDS011;59166;48.908;1.870;2024-02-21T03:55:02;11.43;;;4.33;;
71360;SDS011;59166;48.908;1.870;2024-02-21T04:00:05;12.23;;;4.38;;
71360;SDS011;59166;48.908;1.870;2024-02-21T04:05:07;12.00;;;4.60;;
71360;SDS011;59166;48.908;1.870;2024-02-21T04:10:09;12.87;;;4.60;;
71360;SDS011;59166;48.908;1.870;2024-02-21T04:15:10;11.43;;;4.20;;
71360;SDS011;59166;48.908;1.870;2024-02-21T04:20:13;12.10;;;3.97;;
71360;SDS011;59166;48.908;1.870;2024-02-21T04:25:17;11.37;;;4.17;;
71360;SDS011;59166;48.908;1.870;2024-02-21T04:30:18;9.82;;;3.88;;
71360;SDS011;59166;48.908;1.870;2024-02-21T04:35:18;12.80;;;4.43;;
71360;SDS011;59166;48.908;1.870;2024-02-21T04:40:21;9.83;;;3.80;;
71360;SDS011;59166;48.908;1.870;2024-02-21T04:45:22;12.27;;;4.47;;
71360;SDS011;59166;48.908;1.870;2024-02-21T04:50:22;12.43;;;4.50;;
71360;SDS011;59166;48.908;1.870;2024-02-21T04:55:25;11.73;;;4.30;;
71360;SDS011;59166;48.908;1.870;2024-02-21T05:00:25;11.85;;;4.53;;
71360;SDS011;59166;48.908;1.870;2024-02-21T05:05:26;11.63;;;4.43;;
71360;SDS011;59166;48.908;1.870;2024-02-21T05:10:28;12.50;;;5.30;;
71360;SDS011;59166;48.908;1.870;2024-02-21T05:15:29;13.87;;;5.30;;
71360;SDS011;59166;48.908;1.870;2024-02-21T05:20:30;12.68;;;5.45;;
71360;SDS011;59166;48.908;1.870;2024-02-21T05:25:32;14.57;;;5.47;;
71360;SDS011;59166;48.908;1.870;2024-02-21T05:30:33;16.90;;;6.05;;
71360;SDS011;59166;48.908;1.870;2024-02-21T05:35:34;15.07;;;5.60;;
71360;SDS011;59166;48.908;1.870;2024-02-21T05:40:37;12.80;;;5.80;;
71360;SDS011;59166;48.908;1.870;2024-02-21T05:45:37;13.60;;;5.72;;
71360;SDS011;59166;48.908;1.870;2024-02-21T05:50:38;14.93;;;5.93;;
71360;SDS011;59166;48.908;1.870;2024-02-21T05:55:40;13.38;;;5.60;;
71360;SDS011;59166;48.908;1.870;2024-02-21T06:00:41;12.32;;;5.55;;
71360;SDS011;59166;48.908;1.870;2024-02-21T06:05:42;15.10;;;6.20;;
71360;SDS011;59166;48.908;1.870;2024-02-21T06:10:45;11.85;;;5.72;;
71360;SDS011;59166;48.908;1.870;2024-02-21T06:15:45;18.03;;;6.13;;
71360;SDS011;59166;48.908;1.870;2024-02-21T06:20:46;15.10;;;5.88;;
71360;SDS011;59166;48.908;1.870;2024-02-21T06:25:49;14.55;;;5.93;;
71360;SDS011;59166;48.908;1.870;2024-02-21T06:30:49;15.53;;;6.23;;
71360;SDS011;59166;48.908;1.870;2024-02-21T06:35:50;15.25;;;5.90;;
71360;SDS011;59166;48.908;1.870;2024-02-21T06:40:53;14.87;;;6.37;;
71360;SDS011;59166;48.908;1.870;2024-02-21T06:45:53;15.57;;;6.45;;
71360;SDS011;59166;48.908;1.870;2024-02-21T06:50:54;13.98;;;5.85;;
71360;SDS011;59166;48.908;1.870;2024-02-21T06:55:56;14.17;;;5.90;;
71360;SDS011;59166;48.908;1.870;2024-02-21T07:00:57;13.40;;;6.03;;
71360;SDS011;59166;48.908;1.870;2024-02-21T07:05:58;13.70;;;6.17;;
71360;SDS011;59166;48.908;1.870;2024-02-21T07:11:00;17.83;;;6.07;;
71360;SDS011;59166;48.908;1.870;2024-02-21T07:16:01;11.77;;;5.30;;
71360;SDS011;59166;48.908;1.870;2024-02-21T07:21:02;12.00;;;5.07;;
71360;SDS011;59166;48.908;1.870;2024-02-21T07:26:05;12.00;;;5.13;;
71360;SDS011;59166;48.908;1.870;2024-02-21T07:31:06;11.00;;;4.70;;
71360;SDS011;59166;48.908;1.870;2024-02-21T07:36:07;12.93;;;4.63;;
71360;SDS011;59166;48.908;1.870;2024-02-21T07:41:09;14.10;;;4.75;;
71360;SDS011;59166;48.908;1.870;2024-02-21T07:46:10;11.70;;;4.50;;
71360;SDS011;59166;48.908;1.870;2024-02-21T07:51:11;12.98;;;4.30;;
71360;SDS011;59166;48.908;1.870;2024-02-21T07:56:13;10.37;;;3.73;;
71360;SDS011;59166;48.908;1.870;2024-02-21T08:01:18;9.95;;;4.00;;
71360;SDS011;59166;48.908;1.870;2024-02-21T08:06:19;10.47;;;3.43;;
71360;SDS011;59166;48.908;1.870;2024-02-21T08:11:21;9.23;;;3.37;;
71360;SDS011;59166;48.908;1.870;2024-02-21T08:16:22;10.55;;;3.60;;
71360;SDS011;59166;48.908;1.870;2024-02-21T08:21:22;10.00;;;3.40;;
71360;SDS011;59166;48.908;1.870;2024-02-21T08:26:25;11.85;;;3.67;;
71360;SDS011;59166;48.908;1.870;2024-02-21T08:31:26;16.13;;;7.37;;
71360;SDS011;59166;48.908;1.870;2024-02-21T08:36:27;12.05;;;5.25;;
71360;SDS011;59166;48.908;1.870;2024-02-21T08:41:30;10.63;;;4.10;;
71360;SDS011;59166;48.908;1.870;2024-02-21T08:46:31;10.90;;;3.60;;
71360;SDS011;59166;48.908;1.870;2024-02-21T08:51:31;8.30;;;3.13;;
71360;SDS011;59166;48.908;1.870;2024-02-21T08:56:34;11.68;;;3.60;;
71360;SDS011;59166;48.908;1.870;2024-02-21T09:01:35;11.13;;;3.85;;
71360;SDS011;59166;48.908;1.870;2024-02-21T09:06:36;11.17;;;3.60;;
71360;SDS011;59166;48.908;1.870;2024-02-21T09:11:38;11.40;;;3.92;;
71360;SDS011;59166;48.908;1.870;2024-02-21T09:16:39;10.97;;;4.20;;
71360;SDS011;59166;48.908;1.870;2024-02-21T09:21:39;10.33;;;3.70;;
71360;SDS011;59166;48.908;1.870;2024-02-21T09:26:42;9.90;;;3.40;;
71360;SDS011;59166;48.908;1.870;2024-02-21T09:31:42;11.77;;;3.58;;
71360;SDS011;59166;48.908;1.870;2024-02-21T09:36:43;9.80;;;2.97;;
71360;SDS011;59166;48.908;1.870;2024-02-21T09:41:47;8.02;;;3.08;;
71360;SDS011;59166;48.908;1.870;2024-02-21T09:46:55;10.23;;;3.58;;
71360;SDS011;59166;48.908;1.870;2024-02-21T09:52:02;12.37;;;3.17;;
71360;SDS011;59166;48.908;1.870;2024-02-21T09:57:06;11.77;;;4.00;;
71360;SDS011;59166;48.908;1.870;2024-02-21T10:02:08;9.60;;;3.53;;
71360;SDS011;59166;48.908;1.870;2024-02-21T10:07:09;11.47;;;4.00;;
71360;SDS011;59166;48.908;1.870;2024-02-21T10:12:11;9.90;;;3.30;;
71360;SDS011;59166;48.908;1.870;2024-02-21T10:17:15;12.43;;;3.87;;
71360;SDS011;59166;48.908;1.870;2024-02-21T10:22:17;10.05;;;3.67;;
71360;SDS011;59166;48.908;1.870;2024-02-21T10:27:19;10.73;;;3.70;;
71360;SDS011;59166;48.908;1.870;2024-02-21T10:32:24;10.67;;;3.80;;
71360;SDS011;59166;48.908;1.870;2024-02-21T10:37:24;11.23;;;3.85;;
71360;SDS011;59166;48.908;1.870;2024-02-21T10:42:28;12.20;;;4.03;;
71360;SDS011;59166;48.908;1.870;2024-02-21T10:47:30;10.27;;;3.95;;
71360;SDS011;59166;48.908;1.870;2024-02-21T10:52:42;12.57;;;4.70;;
71360;SDS011;59166;48.908;1.870;2024-02-21T10:57:53;12.50;;;3.97;;
71360;SDS011;59166;48.908;1.870;2024-02-21T11:02:54;13.50;;;4.00;;
71360;SDS011;59166;48.908;1.870;2024-02-21T11:07:56;11.00;;;3.40;;
71360;SDS011;59166;48.908;1.870;2024-02-21T11:13:07;9.47;;;3.63;;
71360;SDS011;59166;48.908;1.870;2024-02-21T11:18:08;11.20;;;3.93;;
71360;SDS011;59166;48.908;1.870;2024-02-21T11:23:08;9.75;;;3.70;;
71360;SDS011;59166;48.908;1.870;2024-02-21T11:28:11;11.33;;;4.00;;
71360;SDS011;59166;48.908;1.870;2024-02-21T11:33:12;10.23;;;3.58;;
71360;SDS011;59166;48.908;1.870;2024-02-21T11:38:13;10.30;;;3.33;;
71360;SDS011;59166;48.908;1.870;2024-02-21T11:43:16;9.52;;;3.58;;
71360;SDS011;59166;48.908;1.870;2024-02-21T11:48:17;11.63;;;3.58;;
71360;SDS011;59166;48.908;1.870;2024-02-21T11:53:18;11.93;;;3.73;;
71360;SDS011;59166;48.908;1.870;2024-02-21T11:58:21;11.00;;;3.53;;
71360;SDS011;59166;48.908;1.870;2024-02-21T12:03:22;10.50;;;3.13;;
71360;SDS011;59166;48.908;1.870;2024-02-21T12:08:23;9.63;;;3.67;;
71360;SDS011;59166;48.908;1.870;2024-02-21T12:13:25;12.77;;;3.22;;
71360;SDS011;59166;48.908;1.870;2024-02-21T12:18:26;10.50;;;3.33;;
71360;SDS011;59166;48.908;1.870;2024-02-21T12:23:27;12.00;;;3.33;;
71360;SDS011;59166;48.908;1.870;2024-02-21T12:28:29;12.40;;;3.40;;
71360;SDS011;59166;48.908;1.870;2024-02-21T12:33:31;10.80;;;3.70;;
71360;SDS011;59166;48.908;1.870;2024-02-21T12:38:32;10.48;;;3.72;;
71360;SDS011;59166;48.908;1.870;2024-02-21T12:43:34;11.20;;;3.63;;
71360;SDS011;59166;48.908;1.870;2024-02-21T12:48:35;10.53;;;3.50;;
71360;SDS011;59166;48.908;1.870;2024-02-21T12:53:36;11.38;;;3.70;;
71360;SDS011;59166;48.908;1.870;2024-02-21T12:58:38;10.73;;;3.53;;
71360;SDS011;59166;48.908;1.870;2024-02-21T13:03:39;9.55;;;3.58;;
71360;SDS011;59166;48.908;1.870;2024-02-21T13:08:40;9.93;;;4.20;;
71360;SDS011;59166;48.908;1.870;2024-02-21T13:13:42;11.52;;;4.10;;
71360;SDS011;59166;48.908;1.870;2024-02-21T13:18:43;10.70;;;3.60;;
71360;SDS011;59166;48.908;1.870;2024-02-21T13:23:44;12.60;;;4.32;;
71360;SDS011;59166;48.908;1.870;2024-02-21T13:28:46;11.83;;;3.87;;
71360;SDS011;59166;48.908;1.870;2024-02-21T13:33:47;13.23;;;4.80;;
71360;SDS011;59166;48.908;1.870;2024-02-21T13:38:48;10.90;;;3.83;;
71360;SDS011;59166;48.908;1.870;2024-02-21T14:00:16;11.13;;;4.47;;
71360;SDS011;59166;48.908;1.870;2024-02-21T14:05:17;12.80;;;4.43;;
71360;SDS011;59166;48.908;1.870;2024-02-21T14:10:17;11.60;;;4.40;;
71360;SDS011;59166;48.908;1.870;2024-02-21T14:15:19;11.33;;;4.30;;
71360;SDS011;59166;48.908;1.870;2024-02-21T14:20:20;11.97;;;4.30;;
71360;SDS011;59166;48.908;1.870;2024-02-21T14:25:21;13.10;;;5.00;;
71360;SDS011;59166;48.908;1.870;2024-02-21T14:30:23;10.27;;;4.18;;
71360;SDS011;59166;48.908;1.870;2024-02-21T14:35:23;12.03;;;4.60;;
71360;SDS011;59166;48.908;1.870;2024-02-21T14:40:24;9.23;;;4.05;;
71360;SDS011;59166;48.908;1.870;2024-02-21T14:45:26;11.07;;;4.27;;
71360;SDS011;59166;48.908;1.870;2024-02-21T14:50:27;10.43;;;4.20;;
71360;SDS011;59166;48.908;1.870;2024-02-21T14:55:27;10.77;;;4.27;;
71360;SDS011;59166;48.908;1.870;2024-02-21T15:00:30;10.32;;;4.22;;
71360;SDS011;59166;48.908;1.870;2024-02-21T15:05:30;9.73;;;4.20;;
71360;SDS011;59166;48.908;1.870;2024-02-21T15:10:31;11.23;;;4.10;;
71360;SDS011;59166;48.908;1.870;2024-02-21T15:15:33;11.13;;;4.20;;
71360;SDS011;59166;48.908;1.870;2024-02-21T15:20:34;11.57;;;4.05;;
71360;SDS011;59166;48.908;1.870;2024-02-21T15:25:34;10.70;;;4.20;;
71360;SDS011;59166;48.908;1.870;2024-02-21T15:30:37;10.07;;;3.83;;
71360;SDS011;59166;48.908;1.870;2024-02-21T15:35:37;11.07;;;3.50;;
71360;SDS011;59166;48.908;1.870;2024-02-21T15:40:38;11.65;;;4.03;;
71360;SDS011;59166;48.908;1.870;2024-02-21T15:45:40;10.40;;;3.77;;
71360;SDS011;59166;48.908;1.870;2024-02-21T15:50:41;10.00;;;3.63;;
71360;SDS011;59166;48.908;1.870;2024-02-21T15:55:41;11.73;;;4.20;;
71360;SDS011;59166;48.908;1.870;2024-02-21T16:00:43;11.90;;;4.30;;
71360;SDS011;59166;48.908;1.870;2024-02-21T16:05:44;9.85;;;3.90;;
71360;SDS011;59166;48.908;1.870;2024-02-21T16:10:45;8.47;;;3.50;;
71360;SDS011;59166;48.908;1.870;2024-02-21T16:15:47;9.68;;;3.60;;
71360;SDS011;59166;48.908;1.870;2024-02-21T16:20:48;9.10;;;3.77;;
71360;SDS011;59166;48.908;1.870;2024-02-21T16:25:48;12.05;;;3.85;;
71360;SDS011;59166;48.908;1.870;2024-02-21T16:30:50;9.73;;;3.57;;
71360;SDS011;59166;48.908;1.870;2024-02-21T16:35:51;9.10;;;3.20;;
71360;SDS011;59166;48.908;1.870;2024-02-21T16:40:51;8.57;;;2.67;;
71360;SDS011;59166;48.908;1.870;2024-02-21T16:45:53;9.07;;;2.93;;
71360;SDS011;59166;48.908;1.870;2024-02-21T16:50:54;9.90;;;3.30;;
71360;SDS011;59166;48.908;1.870;2024-02-21T16:55:54;10.50;;;3.60;;
71360;SDS011;59166;48.908;1.870;2024-02-21T17:00:56;9.40;;;3.80;;
71360;SDS011;59166;48.908;1.870;2024-02-21T17:05:57;10.15;;;3.67;;
71360;SDS011;59166;48.908;1.870;2024-02-21T17:10:58;10.47;;;3.67;;
71360;SDS011;59166;48.908;1.870;2024-02-21T17:16:00;9.95;;;3.97;;
71360;SDS011;59166;48.908;1.870;2024-02-21T17:21:00;12.47;;;3.90;;
71360;SDS011;59166;48.908;1.870;2024-02-21T17:26:01;13.83;;;3.70;;
71360;SDS011;59166;48.908;1.870;2024-02-21T17:31:03;9.73;;;4.10;;
71360;SDS011;59166;48.908;1.870;2024-02-21T17:36:04;10.40;;;4.10;;
71360;SDS011;59166;48.908;1.870;2024-02-21T17:41:05;10.73;;;4.30;;
71360;SDS011;59166;48.908;1.870;2024-02-21T17:46:07;10.47;;;4.03;;
71360;SDS011;59166;48.908;1.870;2024-02-21T17:51:08;9.32;;;3.88;;
71360;SDS011;59166;48.908;1.870;2024-02-21T17:56:08;9.87;;;3.83;;
71360;SDS011;59166;48.908;1.870;2024-02-21T18:01:10;9.80;;;3.88;;
71360;SDS011;59166;48.908;1.870;2024-02-21T18:06:11;8.80;;;2.93;;
71360;SDS011;59166;48.908;1.870;2024-02-21T18:11:11;8.95;;;3.47;;
71360;SDS011;59166;48.908;1.870;2024-02-21T18:16:13;9.90;;;3.90;;
71360;SDS011;59166;48.908;1.870;2024-02-21T18:21:14;10.43;;;4.17;;
71360;SDS011;59166;48.908;1.870;2024-02-21T18:26:15;10.97;;;4.10;;
71360;SDS011;59166;48.908;1.870;2024-02-21T18:31:17;10.27;;;4.17;;
71360;SDS011;59166;48.908;1.870;2024-02-21T18:36:17;10.75;;;4.10;;
71360;SDS011;59166;48.908;1.870;2024-02-21T18:41:18;10.17;;;3.77;;
71360;SDS011;59166;48.908;1.870;2024-02-21T18:46:20;11.85;;;3.88;;
71360;SDS011;59166;48.908;1.870;2024-02-21T18:51:21;10.50;;;3.80;;
71360;SDS011;59166;48.908;1.870;2024-02-21T18:56:21;9.43;;;3.65;;
71360;SDS011;59166;48.908;1.870;2024-02-21T19:01:23;8.70;;;2.77;;
71360;SDS011;59166;48.908;1.870;2024-02-21T19:06:24;9.10;;;3.37;;
71360;SDS011;59166;48.908;1.870;2024-02-21T19:11:25;10.03;;;3.77;;
71360;SDS011;59166;48.908;1.870;2024-02-21T19:16:27;8.27;;;3.47;;
71360;SDS011;59166;48.908;1.870;2024-02-21T19:21:28;10.10;;;3.30;;
71360;SDS011;59166;48.908;1.870;2024-02-21T19:26:28;8.23;;;3.07;;
71360;SDS011;59166;48.908;1.870;2024-02-21T19:31:30;9.50;;;3.10;;
71360;SDS011;59166;48.908;1.870;2024-02-21T19:36:31;8.75;;;3.30;;
71360;SDS011;59166;48.908;1.870;2024-02-21T19:41:31;8.23;;;3.23;;
71360;SDS011;59166;48.908;1.870;2024-02-21T19:46:33;7.13;;;2.75;;
71360;SDS011;59166;48.908;1.870;2024-02-21T19:51:34;8.00;;;3.30;;
71360;SDS011;59166;48.908;1.870;2024-02-21T19:56:35;9.17;;;2.93;;
71360;SDS011;59166;48.908;1.870;2024-02-21T20:01:37;8.05;;;2.95;;
71360;SDS011;59166;48.908;1.870;2024-02-21T20:06:37;9.20;;;2.90;;
71360;SDS011;59166;48.908;1.870;2024-02-21T20:11:38;6.20;;;2.33;;
71360;SDS011;59166;48.908;1.870;2024-02-21T20:16:40;7.10;;;2.90;;
71360;SDS011;59166;48.908;1.870;2024-02-21T20:21:41;6.43;;;2.42;;
71360;SDS011;59166;48.908;1.870;2024-02-21T20:26:42;7.25;;;2.80;;
71360;SDS011;59166;48.908;1.870;2024-02-21T20:31:44;8.70;;;3.30;;
71360;SDS011;59166;48.908;1.870;2024-02-21T20:36:45;8.13;;;3.20;;
71360;SDS011;59166;48.908;1.870;2024-02-21T20:41:46;7.80;;;3.23;;
71360;SDS011;59166;48.908;1.870;2024-02-21T20:46:48;8.57;;;3.00;;
71360;SDS011;59166;48.908;1.870;2024-02-21T20:51:49;7.50;;;2.73;;
71360;SDS011;59166;48.908;1.870;2024-02-21T20:56:50;7.77;;;3.17;;
71360;SDS011;59166;48.908;1.870;2024-02-21T21:01:52;7.80;;;3.20;;
71360;SDS011;59166;48.908;1.870;2024-02-21T21:06:53;8.35;;;2.45;;
71360;SDS011;59166;48.908;1.870;2024-02-21T21:11:54;7.45;;;2.70;;
71360;SDS011;59166;48.908;1.870;2024-02-21T21:16:56;7.80;;;3.00;;
71360;SDS011;59166;48.908;1.870;2024-02-21T21:21:57;8.25;;;2.60;;
71360;SDS011;59166;48.908;1.870;2024-02-21T21:26:58;5.97;;;2.10;;
71360;SDS011;59166;48.908;1.870;2024-02-21T21:32:00;6.90;;;2.40;;
71360;SDS011;59166;48.908;1.870;2024-02-21T21:37:01;7.50;;;2.50;;
71360;SDS011;59166;48.908;1.870;2024-02-21T21:42:02;6.50;;;2.20;;
71360;SDS011;59166;48.908;1.870;2024-02-21T21:47:05;6.55;;;2.05;;
71360;SDS011;59166;48.908;1.870;2024-02-21T21:52:06;5.80;;;2.08;;
71360;SDS011;59166;48.908;1.870;2024-02-21T21:57:07;6.23;;;1.97;;
71360;SDS011;59166;48.908;1.870;2024-02-21T22:02:09;6.30;;;1.58;;
71360;SDS011;59166;48.908;1.870;2024-02-21T22:07:10;5.33;;;1.70;;
71360;SDS011;59166;48.908;1.870;2024-02-21T22:12:11;5.80;;;1.80;;
71360;SDS011;59166;48.908;1.870;2024-02-21T22:17:14;5.10;;;1.60;;
71360;SDS011;59166;48.908;1.870;2024-02-21T22:22:14;5.90;;;1.40;;
71360;SDS011;59166;48.908;1.870;2024-02-21T22:27:15;4.70;;;1.35;;
71360;SDS011;59166;48.908;1.870;2024-02-21T22:32:17;3.47;;;1.17;;
71360;SDS011;59166;48.908;1.870;2024-02-21T22:37:18;4.00;;;1.20;;
71360;SDS011;59166;48.908;1.870;2024-02-21T22:42:18;2.97;;;1.10;;
71360;SDS011;59166;48.908;1.870;2024-02-21T22:47:21;2.77;;;0.93;;
71360;SDS011;59166;48.908;1.870;2024-02-21T22:52:21;3.58;;;1.10;;
71360;SDS011;59166;48.908;1.870;2024-02-21T22:57:22;4.53;;;1.00;;
71360;SDS011;59166;48.908;1.870;2024-02-21T23:02:24;3.35;;;1.00;;
71360;SDS011;59166;48.908;1.870;2024-02-21T23:07:24;2.90;;;0.80;;
71360;SDS011;59166;48.908;1.870;2024-02-21T23:12:25;3.42;;;0.80;;
71360;SDS011;59166;48.908;1.870;2024-02-21T23:17:27;2.00;;;0.63;;
71360;SDS011;59166;48.908;1.870;2024-02-21T23:22:28;2.80;;;0.80;;
71360;SDS011;59166;48.908;1.870;2024-02-21T23:27:29;2.20;;;0.80;;
71360;SDS011;59166;48.908;1.870;2024-02-21T23:32:31;3.00;;;0.90;;
71360;SDS011;59166;48.908;1.870;2024-02-21T23:37:31;2.27;;;0.80;;
71360;SDS011;59166;48.908;1.870;2024-02-21T23:42:32;2.08;;;0.80;;
71360;SDS011;59166;48.908;1.870;2024-02-21T23:47:34;2.83;;;0.80;;
71360;SDS011;59166;48.908;1.870;2024-02-21T23:52:34;2.53;;;0.80;;
71360;SDS011;59166;48.908;1.870;2024-02-21T23:57:35;1.87;;;0.73;;
